Latest Coastal Weather Observations for Edithburgh

IDS60701

Issued at 11:21 pm CST Tuesday 4 August 2015 (issued every 10 minutes, with the page automatically refreshed every 10 minutes)

About coastal observations | Map of coastal stations | Coastal observations for SA | Marine services | Other Formats
Station Details ID: 022046 Name: EDITHBURGH Lat: -35.11 Lon: 137.74 Height: 6.0 m
Data from the previous 72 hours. | See also: Recent months at Edithburgh
Date/Time
CST
Temp

°C
Wind Pressure Rain
since 9am
mm
Weather Cloud Vis
km
Sea
Height
m
Swell
Dir
 
Speed
knots
Gust
knots
hPa Trend Height
m
Period
s
Dir
04/11:00pm 10.8 W 10 14 1022.8 - 1.6 - - - - - - -
04/10:30pm 10.4 W 11 16 1023.0 - 1.0 - - - - - - -
04/10:00pm 10.1 WNW 10 13 1023.1 - 0.8 - - - - - - -
04/09:30pm 10.2 WNW 9 13 1023.4 - 0.6 - - - - - - -
04/09:00pm 8.8 WNW 7 10 1023.3 - 0.6 - - - - - - -
04/08:30pm 8.7 NW 8 9 1023.4 - 0.6 - - - - - - -
04/08:00pm 8.6 NW 6 9 1023.6 - 0.6 - - - - - - -
04/07:30pm 8.7 WNW 7 8 1024.0 - 0.6 - - - - - - -
04/07:00pm 9.4 WNW 8 11 1024.0 - 0.6 - - - - - - -
04/06:30pm 10.0 WNW 7 9 1024.2 - 0.6 - - - - - - -
04/06:00pm 9.8 WNW 6 10 1024.1 - 0.6 - - - - - - -
04/05:30pm 11.2 WNW 9 12 1024.0 - 0.6 - - - - - - -
04/05:00pm 11.0 WNW 7 10 1024.0 - 0.6 - - - - - - -
04/04:30pm 10.9 WNW 11 17 1024.2 - 0.4 - - - - - - -
04/04:00pm 12.2 W 11 16 1024.5 - 0.2 - - - - - - -
04/03:30pm 13.2 W 11 16 1024.7 - 0.2 - - - - - - -
04/03:00pm 13.2 W 11 17 1024.8 - 0.2 - - - - - - -
04/02:30pm 13.8 WSW 12 20 1024.9 - 0.2 - - - - - - -
04/02:00pm 13.7 W 11 16 1024.9 - 0.2 - - - - - - -
04/01:30pm 13.4 W 12 16 1025.3 - 0.2 - - - - - - -
04/01:00pm 13.1 W 6 9 1025.9 - 0.2 - - - - - - -
04/12:30pm 12.6 WSW 9 14 1026.6 - 0.2 - - - - - - -
04/12:00pm 12.2 WSW 7 10 1027.0 - 0.2 - - - - - - -
04/11:30am 11.0 W 6 9 1027.5 - 0.2 - - - - - - -
04/11:00am 12.0 NW 7 9 1027.7 - 0.2 - - - - - - -
04/10:30am 12.7 WNW 7 9 1027.7 - 0.2 - - - - - - -
04/10:00am 11.3 WNW 7 8 1027.7 - 0.0 - - - - - - -
04/09:30am 11.4 WNW 6 8 1027.7 - 0.0 - - - - - - -
04/09:00am 9.8 NW 5 6 1027.8 - 0.4 - - - - - - -
04/08:30am 8.3 WNW 4 5 1027.8 - 0.4 - - - - - - -
04/08:00am 7.0 WNW 5 7 1027.6 - 0.4 - - - - - - -
04/07:30am 5.8 WNW 8 10 1027.5 - 0.4 - - - - - - -
04/07:00am 4.0 NW 7 8 1027.3 - 0.4 - - - - - - -
04/06:30am 4.3 WNW 5 7 1027.1 - 0.4 - - - - - - -
04/06:00am 4.7 NNW 7 8 1027.1 - 0.4 - - - - - - -
04/05:30am 7.3 WNW 4 5 1027.0 - 0.4 - - - - - - -
04/05:00am 6.9 NW 4 4 1027.1 - 0.4 - - - - - - -
04/04:30am 6.3 NW 4 5 1027.0 - 0.4 - - - - - - -
04/04:00am 5.3 WNW 3 4 1027.0 - 0.4 - - - - - - -
04/03:30am 3.3 NW 5 5 1027.2 - 0.4 - - - - - - -
04/03:00am 3.5 WNW 3 4 1027.3 - 0.4 - - - - - - -
04/02:30am 3.5 WNW 3 5 1027.4 - 0.4 - - - - - - -
04/02:00am 4.7 WNW 4 5 1027.4 - 0.4 - - - - - - -
04/01:30am 6.0 WNW 5 6 1027.6 - 0.4 - - - - - - -
04/01:00am 8.5 WSW 3 4 1027.6 - 0.4 - - - - - - -
04/12:30am 7.7 SW 5 6 1027.8 - 0.4 - - - - - - -
04/12:00am 7.1 W 4 5 1027.9 - 0.4 - - - - - - -
 
Date/Time
CST
Temp

°C
Wind Pressure Rain
since 9am
mm
Weather Cloud Vis
km
Sea
Height
m
Swell
Dir
 
Speed
knots
Gust
knots
hPa Trend Height
m
Period
s
Dir
03/11:30pm 6.6 WSW 4 6 1027.8 - 0.4 - - - - - - -
03/11:00pm 5.2 W 4 4 1027.9 - 0.4 - - - - - - -
03/10:30pm 5.4 W 4 5 1027.8 - 0.4 - - - - - - -
03/10:00pm 7.2 WSW 4 5 1028.0 - 0.4 - - - - - - -
03/09:30pm 8.3 SSW 7 9 1028.1 - 0.4 - - - - - - -
03/09:00pm 8.5 SW 7 8 1027.9 - 0.4 - - - - - - -
03/08:30pm 8.8 SW 7 10 1027.9 - 0.4 - - - - - - -
03/08:00pm 9.3 SW 5 7 1027.9 - 0.4 - - - - - - -
03/07:30pm 9.8 SSW 7 11 1027.7 - 0.4 - - - - - - -
03/07:00pm 8.1 SW 5 7 1027.5 - 0.4 - - - - - - -
03/06:30pm 8.7 SSW 6 8 1027.2 - 0.4 - - - - - - -
03/06:00pm 9.5 SSW 8 12 1027.2 - 0.4 - - - - - - -
03/05:30pm 9.8 SW 6 7 1026.9 - 0.4 - - - - - - -
03/05:00pm 11.0 SSW 9 14 1026.8 - 0.4 - - - - - - -
03/04:30pm 11.8 SW 8 12 1026.6 - 0.4 - - - - - - -
03/04:00pm 11.6 SSW 7 12 1026.4 - 0.4 - - - - - - -
03/03:30pm 11.7 SSW 7 9 1026.1 - 0.4 - - - - - - -
03/03:00pm 10.3 SW 11 18 1026.0 - 0.4 - - - - - - -
03/02:30pm 12.3 SSW 10 13 1025.7 - 0.4 - - - - - - -
03/02:00pm 12.2 SW 7 9 1025.7 - 0.4 - - - - - - -
03/01:30pm 10.4 SSW 15 19 1026.0 - 0.4 - - - - - - -
03/01:00pm 12.8 SSW 10 14 1025.9 - 0.4 - - - - - - -
03/12:30pm 12.7 SW 9 12 1026.1 - 0.4 - - - - - - -
03/12:00pm 11.0 SW 10 15 1026.3 - 0.2 - - - - - - -
03/11:30am 13.1 SW 10 15 1026.4 - 0.2 - - - - - - -
03/11:00am 13.1 SSW 11 16 1026.4 - 0.2 - - - - - - -
03/10:30am 12.3 SW 11 17 1026.3 - 0.2 - - - - - - -
03/10:00am 12.2 SW 12 18 1026.0 - 0.2 - - - - - - -
03/09:30am 11.8 SW 13 18 1025.8 - 0.0 - - - - - - -
03/09:00am 12.0 SW 11 15 1025.5 - 1.0 - - - - - - -
03/08:30am 11.4 SW 13 19 1025.2 - 1.0 - - - - - - -
03/08:00am 11.2 SW 12 18 1024.7 - 1.0 - - - - - - -
03/07:30am 11.3 SW 14 19 1024.4 - 1.0 - - - - - - -
03/07:00am 10.9 SW 11 14 1024.0 - 1.0 - - - - - - -
03/06:30am 10.9 SW 12 17 1023.6 - 1.0 - - - - - - -
03/06:00am 10.8 WSW 10 17 1023.4 - 1.0 Recent precip. - - - - - -
03/05:30am 11.1 SW 11 16 1023.1 - 1.0 - - - - - - -
03/05:00am 11.3 WSW 9 14 1022.9 - 0.6 - - - - - - -
03/04:30am 11.2 SW 12 18 1022.8 - 0.6 - - - - - - -
03/04:00am 11.9 WSW 12 18 1022.5 - 0.6 - - - - - - -
03/03:30am 11.3 WSW 10 15 1022.6 - 0.6 - - - - - - -
03/03:00am 11.6 WSW 12 18 1023.0 - 0.6 - - - - - - -
03/02:30am 11.3 WSW 11 16 1022.9 - 0.6 - - - - - - -
03/02:05am 11.3 WSW 15 29 1022.5 - 0.6 - - - - - - -
03/02:00am 11.4 WSW 11 17 1022.5 - 0.6 - - - - - - -
03/01:30am 11.8 WSW 13 19 1022.5 - 0.6 - - - - - - -
03/01:00am 11.2 W 10 14 1022.4 - 0.4 - - - - - - -
03/12:30am 11.0 W 12 17 1022.5 - 0.2 - - - - - - -
03/12:00am 9.9 WNW 7 10 1022.4 - 0.0 - - - - - - -
 
Date/Time
CST
Temp

°C
Wind Pressure Rain
since 9am
mm
Weather Cloud Vis
km
Sea
Height
m
Swell
Dir
 
Speed
knots
Gust
knots
hPa Trend Height
m
Period
s
Dir
02/11:30pm 10.5 W 6 9 1022.5 - 0.0 - - - - - - -
02/11:00pm 10.9 WNW 10 14 1022.6 - 0.0 - - - - - - -
02/10:30pm 11.1 W 10 13 1022.6 - 0.0 - - - - - - -
02/10:00pm 9.5 WNW 9 11 1022.5 - 0.0 - - - - - - -
02/09:30pm 8.7 WNW 8 10 1022.5 - 0.0 - - - - - - -
02/09:00pm 9.8 WNW 9 11 1022.3 - 0.0 - - - - - - -
02/08:30pm 10.1 WNW 9 12 1022.2 - 0.0 - - - - - - -
02/08:00pm 11.9 W 10 17 1022.0 - 0.0 - - - - - - -
02/07:30pm 11.9 W 11 16 1021.7 - 0.0 - - - - - - -
02/07:00pm 12.0 W 11 18 1021.5 - 0.0 - - - - - - -
02/06:30pm 11.3 W 9 13 1021.4 - 0.0 - - - - - - -
02/06:00pm 11.6 W 13 17 1020.9 - 0.0 - - - - - - -
02/05:30pm 11.6 WSW 15 25 1020.7 - 0.0 - - - - - - -
02/05:24pm 11.3 W 15 25 1020.6 - 0.0 - - - - - - -
02/05:00pm 12.3 W 13 18 1020.2 - 0.0 - - - - - - -
02/04:30pm 12.9 W 14 19 1020.0 - 0.0 - - - - - - -
02/04:00pm 13.2 W 11 15 1020.0 - 0.0 - - - - - - -
02/03:33pm 13.1 WSW 15 26 1019.9 - 0.0 - - - - - - -
02/03:30pm 13.9 W 14 19 1019.9 - 0.0 - - - - - - -
02/03:00pm 13.2 W 15 24 1019.7 - 0.0 - - - - - - -
02/02:30pm 14.4 WSW 18 25 1019.4 - 0.0 - - - - - - -
02/02:00pm 14.3 W 16 25 1019.2 - 0.0 - - - - - - -
02/01:30pm 14.2 W 15 23 1019.3 - 0.0 - - - - - - -
02/01:00pm 14.3 W 18 25 1019.4 - 0.0 - - - - - - -
02/12:38pm 14.7 W 17 27 1019.5 - 0.0 - - - - - - -
02/12:30pm 14.6 W 16 24 1019.8 - 0.0 - - - - - - -
02/12:00pm 14.4 W 17 24 1020.0 - 0.0 - - - - - - -
02/11:30am 14.3 W 12 18 1020.2 - 0.0 - - - - - - -
02/11:00am 13.6 W 14 21 1020.1 - 0.0 - - - - - - -
02/10:30am 13.8 W 13 17 1020.1 - 0.0 - - - - - - -
02/10:00am 12.9 WNW 12 17 1020.3 - 0.0 - - - - - - -
02/09:30am 12.1 WNW 10 13 1020.2 - 0.0 - - - - - - -
02/09:00am 11.3 WNW 8 12 1020.2 - 1.0 - - - - - - -
02/08:30am 9.4 W 6 8 1020.0 - 1.0 - - - - - - -
02/08:00am 8.3 WNW 7 9 1019.8 - 1.0 - - - - - - -
02/07:30am 6.3 WNW 7 9 1019.5 - 1.0 - - - - - - -
02/07:00am 6.2 NW 6 8 1019.3 - 1.0 - - - - - - -
02/06:30am 7.2 WNW 8 12 1019.0 - 1.0 - - - - - - -
02/06:00am 8.4 WNW 5 6 1018.8 - 1.0 - - - - - - -
02/05:30am 8.4 WSW 4 7 1018.5 - 1.0 - - - - - - -
02/05:00am 8.6 WNW 5 7 1018.6 - 1.0 - - - - - - -
02/04:30am 8.5 WNW 5 7 1018.5 - 0.8 - - - - - - -
02/04:00am 8.3 WNW 6 7 1018.3 - 0.8 - - - - - - -
02/03:30am 8.1 WNW 5 6 1018.4 - 0.8 - - - - - - -
02/03:00am 8.2 NW 5 7 1018.7 - 0.8 - - - - - - -
02/02:30am 8.2 WNW 6 8 1019.0 - 0.8 - - - - - - -
02/02:00am 7.8 NW 6 7 1018.8 - 0.8 - - - - - - -
02/01:30am 7.2 NW 5 6 1018.8 - 0.8 - - - - - - -
02/01:00am 7.8 WNW 5 6 1019.0 - 0.8 - - - - - - -
02/12:30am 8.3 WNW 6 8 1019.4 - 0.8 - - - - - - -
02/12:00am 8.2 WNW 5 7 1019.2 - 0.8 - - - - - - -
 
Date/Time
CST
Temp

°C
Wind Pressure Rain
since 9am
mm
Weather Cloud Vis
km
Sea
Height
m
Swell
Dir
 
Speed
knots
Gust
knots
hPa Trend Height
m
Period
s
Dir
01/11:30pm 8.2 WNW 6 7 1019.2 - 0.8 - - - - - - -

Other Formats:

Comma delimited format used in spreadsheet applications
http://www.bom.gov.au/fwo/IDS60701/IDS60701.94809.axf

JavaScript Object Notation format (JSON) in row-major order
http://www.bom.gov.au/fwo/IDS60701/IDS60701.94809.json